Map

Track Data

SID SEASON NUMBER BASIN SUBBASIN NAME ISO_TIME NATURE LAT LON WMO_WIND WMO_PRES WMO_AGENCY TRACK_TYPE DIST2LAND LANDFALL IFLAG USA_AGENCY USA_ATCF_ID USA_LAT USA_LON USA_RECORD USA_STATUS USA_WIND USA_PRES USA_SSHS USA_R34_NE USA_R34_SE USA_R34_SW USA_R34_NW USA_R50_NE USA_R50_SE USA_R50_SW USA_R50_NW USA_R64_NE USA_R64_SE USA_R64_SW USA_R64_NW USA_POCI USA_ROCI USA_RMW USA_EYE TOKYO_LAT TOKYO_LON TOKYO_GRADE TOKYO_WIND TOKYO_PRES TOKYO_R50_DIR TOKYO_R50_LONG TOKYO_R50_SHORT TOKYO_R30_DIR TOKYO_R30_LONG TOKYO_R30_SHORT TOKYO_LAND CMA_LAT CMA_LON CMA_CAT CMA_WIND CMA_PRES HKO_LAT HKO_LON HKO_CAT HKO_WIND HKO_PRES NEWDELHI_LAT NEWDELHI_LON NEWDELHI_GRADE NEWDELHI_WIND NEWDELHI_PRES NEWDELHI_CI NEWDELHI_DP NEWDELHI_POCI REUNION_LAT REUNION_LON REUNION_TYPE REUNION_WIND REUNION_PRES REUNION_TNUM REUNION_CI REUNION_RMW REUNION_R34_NE REUNION_R34_SE REUNION_R34_SW REUNION_R34_NW REUNION_R50_NE REUNION_R50_SE REUNION_R50_SW REUNION_R50_NW REUNION_R64_NE REUNION_R64_SE REUNION_R64_SW REUNION_R64_NW BOM_LAT BOM_LON BOM_TYPE BOM_WIND BOM_PRES BOM_TNUM BOM_CI BOM_RMW BOM_R34_NE BOM_R34_SE BOM_R34_SW BOM_R34_NW BOM_R50_NE BOM_R50_SE BOM_R50_SW BOM_R50_NW BOM_R64_NE BOM_R64_SE BOM_R64_SW BOM_R64_NW BOM_ROCI BOM_POCI BOM_EYE BOM_POS_METHOD BOM_PRES_METHOD NADI_LAT NADI_LON NADI_CAT NADI_WIND NADI_PRES WELLINGTON_LAT WELLINGTON_LON WELLINGTON_WIND WELLINGTON_PRES DS824_LAT DS824_LON DS824_STAGE DS824_WIND DS824_PRES TD9636_LAT TD9636_LON TD9636_STAGE TD9636_WIND TD9636_PRES TD9635_LAT TD9635_LON TD9635_WIND TD9635_PRES TD9635_ROCI NEUMANN_LAT NEUMANN_LON NEUMANN_CLASS NEUMANN_WIND NEUMANN_PRES MLC_LAT MLC_LON MLC_CLASS MLC_WIND MLC_PRES USA_GUST BOM_GUST BOM_GUST_PER REUNION_GUST REUNION_GUST_PER USA_SEAHGT USA_SEARAD_NE USA_SEARAD_SE USA_SEARAD_SW USA_SEARAD_NW STORM_SPEED STORM_DIR
1975208N16257 1975 61 EP MM FRANCENE 1975-07-27 06:00:00 NR 16.3000 -102.800 main 186 183 __________O___ -1 16.3000 -102.800 1 30 9 285
1975208N16257 1975 61 EP MM FRANCENE 1975-07-27 09:00:00 NR 16.4130 -103.251 main 193 186 __________P___ -1 16.4130 -103.251 1 32 9 283
1975208N16257 1975 61 EP MM FRANCENE 1975-07-27 12:00:00 TS 16.5000 -103.700 35 hurdat_epa main 197 197 O________OO___ hurdat_epa EP061975 16.5000 -103.700 TS 35 0 16.5000 -103.700 TC 35 16.5000 -103.700 2 35 9 277
1975208N16257 1975 61 EP MM FRANCENE 1975-07-27 15:00:00 TS 16.5143 -104.153 main 214 214 P________PP___ EP061975 16.5002 -104.158 TS 40 0 16.5002 -104.158 TC 40 16.5425 -104.145 2 37 9 271
1975208N16257 1975 61 EP MM FRANCENE 1975-07-27 18:00:00 TS 16.5119 -104.595 45 hurdat_epa main 232 232 O________OP___ hurdat_epa EP061975 16.5000 -104.600 TS 45 0 16.5000 -104.600 TC 45 16.5476 -104.581 2 40 8 269
1975208N16257 1975 61 EP MM FRANCENE 1975-07-27 21:00:00 TS 16.5057 -105.012 main 256 256 P________PP___ EP061975 16.4999 -105.015 TS 45 0 16.4999 -105.015 TC 45 16.5289 -105.001 2 42 8 269
1975208N16257 1975 61 EP MM FRANCENE 1975-07-28 00:00:00 TS 16.5000 -105.400 45 hurdat_epa main 285 285 O________OO___ hurdat_epa EP061975 16.5000 -105.400 TS 45 0 16.5000 -105.400 TC 45 16.5000 -105.400 2 45 7 270
1975208N16257 1975 61 EP MM FRANCENE 1975-07-28 03:00:00 TS 16.5031 -105.760 main 316 316 P________PP___ EP061975 16.5074 -105.757 TS 45 0 16.5074 -105.757 TC 45 16.4859 -105.772 2 43 7 269
1975208N16257 1975 61 EP MM FRANCENE 1975-07-28 06:00:00 TS 16.4929 -106.104 45 hurdat_epa main 331 331 O________OP___ hurdat_epa EP061975 16.5000 -106.100 TS 45 0 16.5000 -106.100 TC 45 16.4645 -106.122 2 42 7 266
1975208N16257 1975 61 EP MM FRANCENE 1975-07-28 09:00:00 TS 16.4531 -106.452 main 351 351 P________PP___ EP061975 16.4574 -106.450 TS 45 0 16.4574 -106.450 TC 45 16.4359 -106.462 2 41 7 262
1975208N16257 1975 61 EP MM FRANCENE 1975-07-28 12:00:00 TS 16.4000 -106.800 45 hurdat_epa main 378 378 O________OO___ hurdat_epa EP061975 16.4000 -106.800 TS 45 0 16.4000 -106.800 TC 45 16.4000 -106.800 2 40 7 261
1975208N16257 1975 61 EP MM FRANCENE 1975-07-28 15:00:00 TS 16.3513 -107.147 main 396 396 P________PP___ EP061975 16.3499 -107.150 TS 35 0 16.3499 -107.150 TC 35 16.3568 -107.134 2 36 7 262
1975208N16257 1975 61 EP MM FRANCENE 1975-07-28 18:00:00 TS 16.3014 -107.494 25 hurdat_epa main 432 432 O________OP___ hurdat_epa EP061975 16.3000 -107.500 TD 25 -1 16.3000 -107.500 TC 25 16.3069 -107.470 2 32 7 261
1975208N16257 1975 61 EP MM FRANCENE 1975-07-28 21:00:00 TS 16.2507 -107.838 main 454 454 P________PP___ EP061975 16.2499 -107.842 TD 25 -1 16.2499 -107.842 TC 25 16.2536 -107.821 2 28 7 261
1975208N16257 1975 61 EP MM FRANCENE 1975-07-29 00:00:00 TS 16.2000 -108.200 25 hurdat_epa main 492 492 O________OO___ hurdat_epa EP061975 16.2000 -108.200 TD 25 -1 16.2000 -108.200 TC 25 16.2000 -108.200 1 25 7 261
1975208N16257 1975 61 EP MM FRANCENE 1975-07-29 03:00:00 TS 16.1344 -108.581 main 530 530 P________PP___ EP061975 16.1499 -108.577 TD 25 -1 16.1499 -108.577 TC 25 16.0724 -108.594 1 25 8 261
1975208N16257 1975 61 EP MM FRANCENE 1975-07-29 06:00:00 TS 16.0714 -109.004 25 hurdat_epa main 561 561 O________OP___ hurdat_epa EP061975 16.1000 -109.000 TD 25 -1 16.1000 -109.000 TC 25 15.9568 -109.020 1 25 9 260
1975208N16257 1975 61 EP MM FRANCENE 1975-07-29 09:00:00 TS 15.9865 -109.473 main 607 607 P________PP___ EP061975 16.0049 -109.470 TD 25 -1 16.0049 -109.470 TC 25 15.9128 -109.486 1 25 10 266
1975208N16257 1975 61 EP MM FRANCENE 1975-07-29 12:00:00 TS 16.0000 -110.000 25 hurdat_epa main 647 647 O________OO___ hurdat_epa EP061975 16.0000 -110.000 TD 25 -1 16.0000 -110.000 TC 25 16.0000 -110.000 1 25 11 280
1975208N16257 1975 61 EP MM FRANCENE 1975-07-29 15:00:00 TS 16.1739 -110.576 main 683 683 P________PP___ EP061975 16.1524 -110.578 TD 25 -1 16.1524 -110.578 TC 25 16.2599 -110.569 1 25 13 295
1975208N16257 1975 61 EP MM FRANCENE 1975-07-29 18:00:00 TS 16.5324 -111.197 25 hurdat_epa main 718 683 O________OP___ hurdat_epa EP061975 16.5000 -111.200 TD 25 -1 16.5000 -111.200 TC 25 16.6621 -111.185 1 25 15 306
1975208N16257 1975 61 EP MM FRANCENE 1975-07-29 21:00:00 TS 17.0680 -111.842 main 675 637 P________PP___ EP061975 17.0454 -111.844 TD 25 -1 17.0454 -111.844 TC 25 17.1582 -111.833 1 25 17 313
1975208N16257 1975 61 EP MM FRANCENE 1975-07-30 00:00:00 TS 17.7000 -112.500 25 hurdat_epa main 637 O________OO___ hurdat_epa EP061975 17.7000 -112.500 TD 25 -1 17.7000 -112.500 TC 25 17.7000 -112.500 1 25 18 315

About IBTrACS Database

This database is a web-friendly format of International Best Track Archive for Climate Stewardship (IBTrACS), a global best track data archive curated by NOAA dating back to 1842.

Updated: 2021-12-03